Time;durP1;ratioP1;P1;durP2;ratioP2;P2;SDS_P1;SDS_P2;PMS_P1;PMS_P2;Temp;Humidity;BMP_temperature;BMP_pressure;BME280_temperature;BME280_humidity;BME280_pressure;Samples;Min_cycle;Max_cycle;Signal;HPM_P1;HPM_P2
2021/12/01 00:00:51;;;;;;;;;;;23.80;49.40;;;;;;1535138;77;1191;-69
2021/12/01 00:02:53;;;;;;;;;;;23.80;49.40;;;;;;1533954;77;766;-69
2021/12/01 00:04:55;;;;;;;;;;;23.70;49.40;;;;;;1527273;77;776;-69
2021/12/01 00:06:57;;;;;;;;;;;23.70;49.40;;;;;;1522716;77;1937;-69
2021/12/01 00:08:59;;;;;;;;;;;23.80;49.40;;;;;;1527451;77;1172;-69
2021/12/01 00:11:01;;;;;;;;;;;23.70;49.40;;;;;;1533416;77;798;-69
2021/12/01 00:13:03;;;;;;;;;;;23.70;49.40;;;;;;1520263;77;715;-70
2021/12/01 00:15:06;;;;;;;;;;;23.70;49.40;;;;;;1546733;77;718;-69
2021/12/01 00:17:11;;;;;;;;;;;23.70;49.40;;;;;;1532861;77;711;-70
2021/12/01 00:19:11;;;;;;;;;;;23.70;49.50;;;;;;1525720;76;1733;-69
2021/12/01 00:21:13;;;;;;;;;;;23.70;49.50;;;;;;1522893;77;685;-69
2021/12/01 00:23:15;;;;;;;;;;;23.70;49.50;;;;;;1539334;77;759;-72
2021/12/01 00:25:17;;;;;;;;;;;23.70;49.60;;;;;;1525082;77;789;-69
2021/12/01 00:27:19;;;;;;;;;;;23.70;49.60;;;;;;1534384;77;1936;-70
2021/12/01 00:29:21;;;;;;;;;;;23.70;49.60;;;;;;1529910;77;1130;-71
2021/12/01 00:31:23;;;;;;;;;;;23.70;49.60;;;;;;1525071;77;750;-70
2021/12/01 00:33:25;;;;;;;;;;;23.70;49.60;;;;;;1520852;77;781;-70
2021/12/01 00:35:27;;;;;;;;;;;23.70;49.60;;;;;;1532553;77;777;-69
2021/12/01 00:37:29;;;;;;;;;;;23.70;49.70;;;;;;1528887;77;795;-69
2021/12/01 00:39:31;;;;;;;;;;;23.70;49.70;;;;;;1525230;77;1106;-69
2021/12/01 00:41:33;;;;;;;;;;;23.70;49.70;;;;;;1533252;77;723;-70
2021/12/01 00:43:38;;;;;;;;;;;23.70;49.70;;;;;;1522293;77;791;-70
2021/12/01 00:45:46;;;;;;;;;;;23.70;49.70;;;;;;1531159;77;1673;-69
2021/12/01 00:47:55;;;;;;;;;;;23.70;49.70;;;;;;1533984;76;1933;-73
2021/12/01 00:49:57;;;;;;;;;;;23.70;49.70;;;;;;1539328;77;1174;-69
2021/12/01 00:51:59;;;;;;;;;;;23.70;49.70;;;;;;1532572;77;745;-70
2021/12/01 00:54:01;;;;;;;;;;;23.80;49.70;;;;;;1528642;77;732;-70
2021/12/01 00:56:03;;;;;;;;;;;23.70;49.70;;;;;;1522616;77;874;-71
2021/12/01 00:58:05;;;;;;;;;;;23.70;49.70;;;;;;1529336;77;712;-69
2021/12/01 01:00:07;;;;;;;;;;;23.70;49.70;;;;;;1532105;77;1206;-70
2021/12/01 01:02:09;;;;;;;;;;;23.70;49.70;;;;;;1526341;77;870;-69
2021/12/01 01:04:11;;;;;;;;;;;23.80;49.80;;;;;;1527180;77;787;-69
2021/12/01 01:06:13;;;;;;;;;;;23.70;49.80;;;;;;1532639;77;757;-69
2021/12/01 01:08:16;;;;;;;;;;;23.70;49.80;;;;;;1522844;77;1948;-69
2021/12/01 01:17:07;;;;;;;;;;;23.80;50.00;;;;;;1531776;77;1655;-70
2021/12/01 01:19:09;;;;;;;;;;;23.70;50.00;;;;;;1526727;77;1148;-70
2021/12/01 01:21:11;;;;;;;;;;;23.70;50.00;;;;;;1524194;77;635;-70
2021/12/01 01:23:13;;;;;;;;;;;23.70;50.00;;;;;;1519829;77;885;-70
2021/12/01 01:25:15;;;;;;;;;;;23.70;50.00;;;;;;1513781;77;760;-72
2021/12/01 01:27:17;;;;;;;;;;;23.70;50.00;;;;;;1506814;77;1950;-71
2021/12/01 01:29:21;;;;;;;;;;;23.70;50.00;;;;;;1511112;78;1159;-69
2021/12/01 01:31:22;;;;;;;;;;;23.70;50.00;;;;;;1518742;78;1766;-69
2021/12/01 01:33:24;;;;;;;;;;;23.70;50.00;;;;;;1524112;78;705;-69
2021/12/01 01:35:26;;;;;;;;;;;23.80;50.00;;;;;;1525203;77;747;-71
2021/12/01 01:37:28;;;;;;;;;;;23.80;50.00;;;;;;1531161;78;626;-71
2021/12/01 01:39:30;;;;;;;;;;;23.70;50.00;;;;;;1530804;78;1149;-70
2021/12/01 01:41:32;;;;;;;;;;;23.70;50.00;;;;;;1531180;78;750;-71
2021/12/01 01:43:34;;;;;;;;;;;23.70;50.00;;;;;;1527913;78;776;-70
2021/12/01 01:45:36;;;;;;;;;;;23.70;50.00;;;;;;1507114;77;625;-69
2021/12/01 01:47:40;;;;;;;;;;;23.70;50.00;;;;;;1499440;79;1938;-69
2021/12/01 01:49:57;;;;;;;;;;;23.70;50.10;;;;;;1498477;79;1907;-69
2021/12/01 01:51:46;;;;;;;;;;;23.70;50.00;;;;;;1494852;79;1541;-67
2021/12/01 01:53:50;;;;;;;;;;;23.80;50.00;;;;;;1499404;79;706;-68
2021/12/01 01:55:52;;;;;;;;;;;23.70;50.00;;;;;;1502873;77;1677;-69
2021/12/01 01:57:54;;;;;;;;;;;23.70;50.00;;;;;;1499396;79;658;-68
2021/12/01 01:59:56;;;;;;;;;;;23.80;50.00;;;;;;1499346;78;1133;-69
2021/12/01 02:01:59;;;;;;;;;;;23.70;49.90;;;;;;1499016;79;798;-68
2021/12/01 02:04:01;;;;;;;;;;;23.80;50.00;;;;;;1520392;77;783;-70
2021/12/01 02:06:03;;;;;;;;;;;23.70;49.90;;;;;;1524620;78;800;-68
2021/12/01 02:08:05;;;;;;;;;;;23.70;49.90;;;;;;1524103;78;1912;-68
2021/12/01 02:10:07;;;;;;;;;;;23.70;49.80;;;;;;1524491;78;1201;-69
2021/12/01 02:12:09;;;;;;;;;;;23.80;49.80;;;;;;1501902;77;761;-69
2021/12/01 02:14:11;;;;;;;;;;;23.70;49.80;;;;;;1499074;79;691;-69
2021/12/01 02:16:13;;;;;;;;;;;23.70;49.80;;;;;;1499526;79;722;-69
2021/12/01 02:18:15;;;;;;;;;;;23.70;49.80;;;;;;1499387;79;707;-70
2021/12/01 02:20:19;;;;;;;;;;;23.70;49.80;;;;;;1500674;77;1153;-69
2021/12/01 02:22:21;;;;;;;;;;;23.70;49.80;;;;;;1499281;79;735;-70
2021/12/01 02:24:23;;;;;;;;;;;23.80;49.90;;;;;;1500678;77;930;-71
2021/12/01 02:26:25;;;;;;;;;;;23.80;49.80;;;;;;1499268;79;711;-70
2021/12/01 02:28:27;;;;;;;;;;;23.70;49.80;;;;;;1499356;79;1954;-72
2021/12/01 02:30:28;;;;;;;;;;;23.80;49.80;;;;;;1499113;79;1137;-69
2021/12/01 02:32:30;;;;;;;;;;;23.70;49.90;;;;;;1499319;79;659;-69
2021/12/01 02:34:34;;;;;;;;;;;23.80;49.90;;;;;;1503443;77;786;-69
2021/12/01 02:36:36;;;;;;;;;;;23.70;49.90;;;;;;1499015;78;748;-70
2021/12/01 02:38:40;;;;;;;;;;;23.70;49.90;;;;;;1516482;77;828;-69
2021/12/01 02:40:42;;;;;;;;;;;23.70;49.90;;;;;;1524450;78;1060;-69
2021/12/01 02:42:44;;;;;;;;;;;23.70;49.90;;;;;;1523896;77;789;-70
2021/12/01 02:44:46;;;;;;;;;;;23.80;49.90;;;;;;1524581;78;712;-68
2021/12/01 02:46:47;;;;;;;;;;;23.70;49.90;;;;;;1524545;78;739;-68
2021/12/01 02:48:49;;;;;;;;;;;23.70;49.80;;;;;;1524160;78;1933;-68
2021/12/01 02:50:53;;;;;;;;;;;23.70;49.90;;;;;;1524550;78;1161;-65
2021/12/01 02:52:54;;;;;;;;;;;23.80;49.80;;;;;;1524534;77;714;-69
2021/12/01 02:54:56;;;;;;;;;;;23.70;49.80;;;;;;1524289;77;732;-69
2021/12/01 02:56:58;;;;;;;;;;;23.70;49.80;;;;;;1524571;78;808;-67
2021/12/01 02:59:01;;;;;;;;;;;23.70;49.90;;;;;;1524266;78;1135;-69
2021/12/01 03:01:04;;;;;;;;;;;23.70;49.90;;;;;;1524387;77;668;-69
2021/12/01 03:03:05;;;;;;;;;;;23.80;49.90;;;;;;1515554;77;786;-67
2021/12/01 03:05:08;;;;;;;;;;;23.70;49.80;;;;;;1524113;78;749;-67
2021/12/01 03:07:09;;;;;;;;;;;23.70;49.80;;;;;;1524392;78;1938;-68
2021/12/01 03:09:13;;;;;;;;;;;23.80;49.70;;;;;;1524540;78;1223;-69
2021/12/01 03:11:15;;;;;;;;;;;23.80;49.70;;;;;;1521100;77;1683;-68
2021/12/01 03:13:17;;;;;;;;;;;23.70;49.70;;;;;;1499393;79;820;-68
2021/12/01 03:15:19;;;;;;;;;;;23.70;49.70;;;;;;1499357;79;732;-67
2021/12/01 03:17:21;;;;;;;;;;;23.70;49.70;;;;;;1499104;79;808;-68
2021/12/01 03:19:23;;;;;;;;;;;23.70;49.70;;;;;;1499490;79;1137;-68
2021/12/01 03:21:24;;;;;;;;;;;23.70;49.70;;;;;;1523473;77;695;-68
2021/12/01 03:23:26;;;;;;;;;;;23.70;49.70;;;;;;1524089;78;761;-69
2021/12/01 03:25:28;;;;;;;;;;;23.60;49.50;;;;;;1524635;77;768;-69
2021/12/01 03:27:30;;;;;;;;;;;23.70;49.60;;;;;;1524577;77;1932;-68
2021/12/01 03:29:32;;;;;;;;;;;23.70;49.60;;;;;;1524199;77;1139;-68
2021/12/01 03:31:34;;;;;;;;;;;23.80;49.60;;;;;;1524565;78;725;-68
2021/12/01 03:33:36;;;;;;;;;;;23.70;49.50;;;;;;1524293;78;806;-68
2021/12/01 03:35:38;;;;;;;;;;;23.70;49.50;;;;;;1517599;77;791;-68
2021/12/01 03:37:41;;;;;;;;;;;23.70;49.50;;;;;;1499360;79;770;-67
2021/12/01 03:39:42;;;;;;;;;;;23.80;49.50;;;;;;1499042;79;1155;-68
2021/12/01 03:41:44;;;;;;;;;;;23.70;49.50;;;;;;1518771;76;758;-68
2021/12/01 03:43:46;;;;;;;;;;;23.90;49.60;;;;;;1505808;76;680;-69
2021/12/01 03:45:48;;;;;;;;;;;23.70;49.50;;;;;;1518574;78;687;-69
2021/12/01 03:47:50;;;;;;;;;;;23.90;49.70;;;;;;1524380;78;1909;-68
2021/12/01 03:49:52;;;;;;;;;;;23.80;49.60;;;;;;1524404;78;1147;-69
2021/12/01 03:51:54;;;;;;;;;;;23.90;49.50;;;;;;1520695;76;713;-69
2021/12/01 03:53:56;;;;;;;;;;;23.90;49.50;;;;;;1500851;77;784;-71
2021/12/01 03:55:59;;;;;;;;;;;23.90;49.50;;;;;;1500532;77;741;-69
2021/12/01 03:58:01;;;;;;;;;;;23.90;49.50;;;;;;1499128;78;923;-69
2021/12/01 04:00:04;;;;;;;;;;;23.90;49.40;;;;;;1523196;75;226509;-55
2021/12/01 04:02:06;;;;;;;;;;;23.90;49.40;;;;;;1561201;75;1780;-57
2021/12/01 04:04:08;;;;;;;;;;;23.90;49.40;;;;;;1567409;75;775;-57
2021/12/01 04:06:10;;;;;;;;;;;23.90;49.40;;;;;;1570718;75;1159;-57
2021/12/01 04:08:12;;;;;;;;;;;24.00;49.20;;;;;;1549831;77;1944;-57
2021/12/01 04:10:14;;;;;;;;;;;24.00;49.20;;;;;;1550105;76;761;-57
2021/12/01 04:12:16;;;;;;;;;;;24.00;49.10;;;;;;1549308;77;655;-59
2021/12/01 04:14:18;;;;;;;;;;;23.90;49.20;;;;;;1549854;77;773;-59
2021/12/01 04:16:20;;;;;;;;;;;23.90;49.20;;;;;;1549807;77;1122;-58
2021/12/01 04:18:22;;;;;;;;;;;23.90;49.20;;;;;;1540768;77;723;-56
2021/12/01 04:20:24;;;;;;;;;;;24.00;49.10;;;;;;1532433;76;851;-56
2021/12/01 04:22:26;;;;;;;;;;;23.90;49.40;;;;;;1541498;75;705;-57
2021/12/01 04:24:28;;;;;;;;;;;23.70;49.70;;;;;;1534487;76;719;-58
2021/12/01 04:26:32;;;;;;;;;;;23.70;50.00;;;;;;1527953;77;1135;-57
2021/12/01 04:28:33;;;;;;;;;;;23.60;50.20;;;;;;1531660;76;1941;-58
2021/12/01 04:30:35;;;;;;;;;;;23.60;50.40;;;;;;1524401;77;736;-58
2021/12/01 04:32:37;;;;;;;;;;;23.50;50.60;;;;;;1532733;76;674;-57
2021/12/01 04:34:39;;;;;;;;;;;23.50;50.70;;;;;;1550200;77;787;-56
2021/12/01 04:36:43;;;;;;;;;;;23.40;50.70;;;;;;1544847;77;1126;-57
2021/12/01 04:38:45;;;;;;;;;;;23.40;50.90;;;;;;1545081;75;762;-59
2021/12/01 04:40:47;;;;;;;;;;;23.40;51.20;;;;;;1548271;76;807;-59
2021/12/01 04:42:49;;;;;;;;;;;23.40;51.00;;;;;;1528763;77;743;-57
2021/12/01 04:44:51;;;;;;;;;;;23.50;51.20;;;;;;1522307;78;771;-58
2021/12/01 04:46:56;;;;;;;;;;;23.30;51.10;;;;;;1522755;78;1135;-57
2021/12/01 04:48:56;;;;;;;;;;;23.30;51.20;;;;;;1522276;78;1935;-58
2021/12/01 04:50:59;;;;;;;;;;;23.40;51.30;;;;;;1544391;76;697;-57
2021/12/01 04:53:00;;;;;;;;;;;23.40;51.30;;;;;;1549775;77;826;-58
2021/12/01 04:55:03;;;;;;;;;;;23.40;51.40;;;;;;1549254;76;756;-58
2021/12/01 04:57:05;;;;;;;;;;;23.30;51.40;;;;;;1549616;77;1072;-57
2021/12/01 04:59:07;;;;;;;;;;;23.30;51.40;;;;;;1543208;76;683;-58
2021/12/01 05:01:09;;;;;;;;;;;23.30;51.50;;;;;;1536980;76;833;-59
2021/12/01 05:03:11;;;;;;;;;;;23.30;51.50;;;;;;1535478;76;750;-57
2021/12/01 05:05:13;;;;;;;;;;;23.30;51.50;;;;;;1540920;77;760;-58
2021/12/01 05:07:14;;;;;;;;;;;23.30;51.60;;;;;;1534162;75;1157;-58
2021/12/01 05:09:16;;;;;;;;;;;23.30;51.60;;;;;;1536041;77;1946;-58
2021/12/01 05:11:19;;;;;;;;;;;23.30;51.70;;;;;;1533361;77;712;-58
2021/12/01 05:13:21;;;;;;;;;;;23.30;51.70;;;;;;1534520;76;719;-57
2021/12/01 05:15:22;;;;;;;;;;;23.30;51.90;;;;;;1533181;77;726;-58
2021/12/01 05:17:24;;;;;;;;;;;23.30;51.80;;;;;;1538755;76;1161;-56
2021/12/01 05:19:26;;;;;;;;;;;23.30;51.80;;;;;;1537648;77;783;-58
2021/12/01 05:21:28;;;;;;;;;;;23.30;51.80;;;;;;1536353;76;708;-58
2021/12/01 05:23:30;;;;;;;;;;;23.30;51.80;;;;;;1522713;77;668;-56
2021/12/01 05:25:32;;;;;;;;;;;23.30;51.80;;;;;;1541439;76;798;-57
2021/12/01 05:27:34;;;;;;;;;;;23.40;51.80;;;;;;1545674;75;1144;-58
2021/12/01 05:29:36;;;;;;;;;;;23.40;51.90;;;;;;1531785;77;1938;-58
2021/12/01 05:31:38;;;;;;;;;;;23.30;51.90;;;;;;1536203;77;774;-58
2021/12/01 05:33:40;;;;;;;;;;;23.30;51.90;;;;;;1536762;76;727;-58
2021/12/01 05:35:43;;;;;;;;;;;23.30;51.90;;;;;;1530122;76;787;-57
2021/12/01 05:37:45;;;;;;;;;;;23.40;51.90;;;;;;1522404;77;721;-58
2021/12/01 05:39:47;;;;;;;;;;;23.30;51.90;;;;;;1527779;77;744;-56
2021/12/01 05:41:50;;;;;;;;;;;23.40;52.00;;;;;;1523483;77;777;-59
2021/12/01 05:43:52;;;;;;;;;;;23.30;51.80;;;;;;1525686;76;723;-57
2021/12/01 05:45:54;;;;;;;;;;;23.40;52.00;;;;;;1524376;78;1130;-59
2021/12/01 05:47:56;;;;;;;;;;;23.30;52.00;;;;;;1524474;78;786;-57
2021/12/01 05:49:58;;;;;;;;;;;23.30;51.90;;;;;;1524786;76;1934;-56
2021/12/01 05:52:00;;;;;;;;;;;23.30;52.00;;;;;;1524305;78;760;-59
2021/12/01 05:54:02;;;;;;;;;;;23.40;52.10;;;;;;1524319;78;737;-57
2021/12/01 05:56:04;;;;;;;;;;;23.40;52.00;;;;;;1548792;77;1182;-56
2021/12/01 05:58:06;;;;;;;;;;;23.30;51.90;;;;;;1550154;77;703;-58
2021/12/01 06:00:09;;;;;;;;;;;23.30;52.00;;;;;;1550097;77;818;-58
2021/12/01 06:02:11;;;;;;;;;;;23.40;51.80;;;;;;1531746;77;767;-56
2021/12/01 06:04:13;;;;;;;;;;;23.30;51.90;;;;;;1541170;76;676;-57
2021/12/01 06:06:15;;;;;;;;;;;23.30;51.90;;;;;;1549911;77;1162;-57
2021/12/01 06:08:16;;;;;;;;;;;23.30;51.80;;;;;;1549714;77;1935;-57
2021/12/01 06:10:18;;;;;;;;;;;23.30;52.00;;;;;;1550103;77;785;-59
2021/12/01 06:12:21;;;;;;;;;;;23.40;51.90;;;;;;1548468;76;775;-56
2021/12/01 06:14:23;;;;;;;;;;;23.40;51.90;;;;;;1549815;77;804;-58
2021/12/01 06:16:25;;;;;;;;;;;23.40;51.80;;;;;;1549886;75;1117;-58
2021/12/01 06:18:29;;;;;;;;;;;23.40;51.80;;;;;;1549488;77;653;-57
2021/12/01 06:20:30;;;;;;;;;;;23.40;51.90;;;;;;1548676;76;1675;-56
2021/12/01 06:22:32;;;;;;;;;;;23.30;51.90;;;;;;1549709;77;643;-57
2021/12/01 06:24:35;;;;;;;;;;;23.30;51.90;;;;;;1548807;76;660;-56
2021/12/01 06:26:37;;;;;;;;;;;23.40;51.90;;;;;;1549845;77;1150;-57
2021/12/01 06:28:40;;;;;;;;;;;23.40;51.80;;;;;;1549801;77;1924;-58
2021/12/01 06:30:43;;;;;;;;;;;23.30;51.90;;;;;;1549291;77;723;-57
2021/12/01 06:32:44;;;;;;;;;;;23.40;51.80;;;;;;1549691;77;713;-57
2021/12/01 06:34:46;;;;;;;;;;;23.40;51.90;;;;;;1549431;76;712;-58
2021/12/01 06:36:48;;;;;;;;;;;23.50;52.00;;;;;;1549833;77;1078;-58
2021/12/01 06:38:50;;;;;;;;;;;23.40;51.90;;;;;;1550347;77;722;-58
2021/12/01 06:40:52;;;;;;;;;;;23.40;51.80;;;;;;1537524;77;780;-56
2021/12/01 06:42:54;;;;;;;;;;;23.40;51.90;;;;;;1530213;76;956;-57
2021/12/01 06:44:56;;;;;;;;;;;23.40;51.90;;;;;;1530357;77;786;-56
2021/12/01 06:46:58;;;;;;;;;;;23.50;52.10;;;;;;1527301;77;1128;-56
2021/12/01 06:49:00;;;;;;;;;;;23.50;51.80;;;;;;1522251;78;1919;-57
2021/12/01 06:51:01;;;;;;;;;;;23.50;51.80;;;;;;1523310;76;716;-56
2021/12/01 06:53:04;;;;;;;;;;;23.50;51.80;;;;;;1549372;77;767;-56
2021/12/01 06:55:06;;;;;;;;;;;23.40;51.70;;;;;;1549143;76;840;-56
2021/12/01 06:57:08;;;;;;;;;;;23.40;51.70;;;;;;1549807;77;1133;-57
2021/12/01 06:59:10;;;;;;;;;;;23.50;51.80;;;;;;1549646;77;774;-56
2021/12/01 07:01:12;;;;;;;;;;;23.40;51.60;;;;;;1540394;76;763;-57
2021/12/01 07:03:14;;;;;;;;;;;23.50;51.80;;;;;;1540759;76;716;-56
2021/12/01 07:05:16;;;;;;;;;;;23.50;51.70;;;;;;1541786;76;727;-56
2021/12/01 07:07:18;;;;;;;;;;;23.50;51.80;;;;;;1536909;76;1142;-56
2021/12/01 07:09:23;;;;;;;;;;;23.50;51.90;;;;;;1537559;77;1942;-57
2021/12/01 07:11:23;;;;;;;;;;;23.50;51.80;;;;;;1539658;76;1671;-56
2021/12/01 07:13:25;;;;;;;;;;;23.50;51.90;;;;;;1522983;77;556;-58
2021/12/01 07:15:27;;;;;;;;;;;23.40;51.80;;;;;;1528952;76;731;-57
2021/12/01 07:17:29;;;;;;;;;;;23.50;51.90;;;;;;1533525;76;1104;-57
2021/12/01 07:19:31;;;;;;;;;;;23.40;51.80;;;;;;1533426;76;764;-58
2021/12/01 07:21:33;;;;;;;;;;;23.50;51.90;;;;;;1534476;76;723;-57
2021/12/01 07:23:35;;;;;;;;;;;23.50;51.80;;;;;;1533419;76;920;-56
2021/12/01 07:25:36;;;;;;;;;;;23.40;51.80;;;;;;1534238;76;698;-57
2021/12/01 07:27:38;;;;;;;;;;;23.50;51.80;;;;;;1534721;76;1117;-57
2021/12/01 07:29:42;;;;;;;;;;;23.50;52.00;;;;;;1531603;77;1941;-56
2021/12/01 07:31:44;;;;;;;;;;;23.50;51.90;;;;;;1524321;77;805;-58
2021/12/01 07:33:45;;;;;;;;;;;23.50;52.10;;;;;;1534291;76;781;-56
2021/12/01 07:35:47;;;;;;;;;;;23.50;52.10;;;;;;1536005;77;1134;-57
2021/12/01 07:37:49;;;;;;;;;;;23.50;52.10;;;;;;1534989;76;714;-58
2021/12/01 07:39:51;;;;;;;;;;;23.50;52.10;;;;;;1534441;76;772;-56
2021/12/01 07:41:53;;;;;;;;;;;23.50;52.10;;;;;;1537775;76;786;-56
2021/12/01 07:43:55;;;;;;;;;;;23.50;52.10;;;;;;1529401;77;747;-56
2021/12/01 07:45:57;;;;;;;;;;;23.50;52.00;;;;;;1525697;77;1158;-56
2021/12/01 07:47:59;;;;;;;;;;;23.50;52.00;;;;;;1534253;75;707;-56
2021/12/01 07:50:01;;;;;;;;;;;23.50;51.90;;;;;;1537426;76;1938;-58
2021/12/01 07:52:04;;;;;;;;;;;23.50;51.90;;;;;;1531688;76;712;-56
2021/12/01 07:54:06;;;;;;;;;;;23.50;51.90;;;;;;1536525;76;718;-56
2021/12/01 07:56:07;;;;;;;;;;;23.50;51.90;;;;;;1527237;76;1142;-56
2021/12/01 07:58:09;;;;;;;;;;;23.50;52.00;;;;;;1536142;77;735;-58
2021/12/01 08:00:11;;;;;;;;;;;23.50;52.10;;;;;;1531655;76;720;-58
2021/12/01 08:02:13;;;;;;;;;;;23.60;52.00;;;;;;1537265;76;805;-58
2021/12/01 08:04:15;;;;;;;;;;;23.80;51.40;;;;;;1540662;76;732;-59
2021/12/01 08:06:17;;;;;;;;;;;23.90;50.70;;;;;;1528421;77;1155;-59
2021/12/01 08:08:19;;;;;;;;;;;24.00;50.20;;;;;;1531109;77;713;-60
2021/12/01 08:10:21;;;;;;;;;;;24.00;50.00;;;;;;1534554;77;1948;-58
2021/12/01 08:12:23;;;;;;;;;;;24.00;49.80;;;;;;1531449;76;776;-59
2021/12/01 08:14:25;;;;;;;;;;;24.00;49.70;;;;;;1535277;76;705;-56
2021/12/01 08:16:26;;;;;;;;;;;24.00;49.60;;;;;;1524005;77;1115;-59
2021/12/01 08:18:28;;;;;;;;;;;24.00;49.50;;;;;;1524398;78;720;-59
2021/12/01 08:20:30;;;;;;;;;;;24.00;49.40;;;;;;1531750;76;788;-59
2021/12/01 08:22:32;;;;;;;;;;;24.00;49.40;;;;;;1530282;76;808;-58
2021/12/01 08:24:34;;;;;;;;;;;24.00;49.30;;;;;;1540007;76;748;-59
2021/12/01 08:26:36;;;;;;;;;;;23.90;49.20;;;;;;1549847;75;1161;-59
2021/12/01 08:28:38;;;;;;;;;;;24.00;49.20;;;;;;1549848;77;672;-60
2021/12/01 08:30:40;;;;;;;;;;;24.00;49.20;;;;;;1541165;76;1935;-59
2021/12/01 08:32:45;;;;;;;;;;;23.90;49.20;;;;;;1528541;76;795;-57
2021/12/01 08:34:50;;;;;;;;;;;24.00;49.10;;;;;;1522275;78;1752;-59
2021/12/01 08:36:49;;;;;;;;;;;24.00;49.10;;;;;;1536514;76;1742;-59
2021/12/01 08:38:51;;;;;;;;;;;24.00;48.90;;;;;;1538553;76;724;-58
2021/12/01 08:40:52;;;;;;;;;;;23.90;49.00;;;;;;1534407;77;722;-57
2021/12/01 08:42:54;;;;;;;;;;;23.90;48.90;;;;;;1538649;76;679;-57
2021/12/01 08:44:56;;;;;;;;;;;23.90;48.90;;;;;;1541529;77;763;-57
2021/12/01 08:47:01;;;;;;;;;;;23.90;48.80;;;;;;1540896;76;1135;-59
2021/12/01 08:49:02;;;;;;;;;;;23.90;48.80;;;;;;1535805;76;1547;-60
2021/12/01 08:51:04;;;;;;;;;;;23.90;48.80;;;;;;1529689;76;1941;-59
2021/12/01 08:53:06;;;;;;;;;;;23.90;48.70;;;;;;1540834;76;829;-60
2021/12/01 08:55:08;;;;;;;;;;;23.90;48.70;;;;;;1535457;76;825;-60
2021/12/01 08:57:10;;;;;;;;;;;23.90;48.70;;;;;;1538631;76;1185;-58
2021/12/01 08:59:12;;;;;;;;;;;23.90;48.60;;;;;;1544639;77;827;-60
2021/12/01 09:01:14;;;;;;;;;;;23.90;48.60;;;;;;1536833;76;789;-59
2021/12/01 09:03:17;;;;;;;;;;;23.90;48.60;;;;;;1532981;77;790;-59
2021/12/01 09:05:19;;;;;;;;;;;23.90;48.60;;;;;;1533145;76;752;-60
2021/12/01 09:07:20;;;;;;;;;;;23.90;48.50;;;;;;1537401;75;1136;-58
2021/12/01 09:09:22;;;;;;;;;;;23.90;48.50;;;;;;1533701;76;1944;-59
2021/12/01 09:11:24;;;;;;;;;;;23.90;48.40;;;;;;1537603;76;741;-59
2021/12/01 09:13:26;;;;;;;;;;;23.90;48.40;;;;;;1539780;76;737;-57
2021/12/01 09:15:28;;;;;;;;;;;23.90;48.40;;;;;;1527492;77;716;-58
2021/12/01 09:17:30;;;;;;;;;;;24.00;48.30;;;;;;1530717;76;1098;-58
2021/12/01 09:19:32;;;;;;;;;;;23.90;48.40;;;;;;1523988;77;739;-57
2021/12/01 09:21:34;;;;;;;;;;;23.90;48.30;;;;;;1542493;76;691;-58
2021/12/01 09:23:36;;;;;;;;;;;24.00;48.30;;;;;;1549758;77;707;-58
2021/12/01 09:25:38;;;;;;;;;;;23.90;48.20;;;;;;1549047;76;732;-58
2021/12/01 09:27:40;;;;;;;;;;;24.00;48.30;;;;;;1549655;77;1159;-58
2021/12/01 09:29:42;;;;;;;;;;;23.90;48.20;;;;;;1549829;77;1928;-58
2021/12/01 09:31:44;;;;;;;;;;;23.90;48.20;;;;;;1549360;77;739;-59
2021/12/01 09:33:46;;;;;;;;;;;24.00;48.20;;;;;;1548988;76;702;-58
2021/12/01 09:35:47;;;;;;;;;;;24.00;48.20;;;;;;1549810;77;1118;-58
2021/12/01 09:37:49;;;;;;;;;;;24.00;48.20;;;;;;1549348;77;793;-60
2021/12/01 09:39:51;;;;;;;;;;;23.90;48.10;;;;;;1549775;77;655;-58
2021/12/01 09:41:55;;;;;;;;;;;23.90;48.10;;;;;;1549472;77;812;-60
2021/12/01 09:43:57;;;;;;;;;;;23.90;48.00;;;;;;1543108;76;751;-60
2021/12/01 09:46:00;;;;;;;;;;;24.00;48.10;;;;;;1527053;76;1143;-58
2021/12/01 09:48:02;;;;;;;;;;;24.00;48.10;;;;;;1535348;77;709;-58
2021/12/01 09:50:03;;;;;;;;;;;24.00;48.10;;;;;;1522757;77;1941;-57
2021/12/01 09:52:08;;;;;;;;;;;24.00;48.10;;;;;;1524000;78;770;-58
2021/12/01 09:54:09;;;;;;;;;;;24.00;48.00;;;;;;1548192;75;1651;-56
2021/12/01 09:56:11;;;;;;;;;;;24.00;47.90;;;;;;1549755;76;1097;-56
2021/12/01 09:58:15;;;;;;;;;;;24.00;47.80;;;;;;1550392;77;796;-57
2021/12/01 10:00:17;;;;;;;;;;;24.10;47.90;;;;;;1523798;75;219868;-70
2021/12/01 10:02:21;;;;;;;;;;;24.00;47.80;;;;;;1472944;80;747;-70
2021/12/01 10:04:24;;;;;;;;;;;24.00;47.60;;;;;;1478859;79;1604;-70
2021/12/01 10:06:26;;;;;;;;;;;24.10;47.60;;;;;;1496616;79;764;-68
2021/12/01 10:08:34;;;;;;;;;;;24.10;47.70;;;;;;1496181;79;812;-70
2021/12/01 10:10:37;;;;;;;;;;;24.10;47.60;;;;;;1496455;78;1946;-71
2021/12/01 10:12:48;;;;;;;;;;;24.20;47.70;;;;;;1493639;79;742;-69
2021/12/01 10:14:51;;;;;;;;;;;24.00;47.50;;;;;;1491043;80;985;-71
2021/12/01 10:16:54;;;;;;;;;;;24.10;47.70;;;;;;1490341;80;784;-69
2021/12/01 10:18:56;;;;;;;;;;;24.10;47.70;;;;;;1491636;80;705;-69
2021/12/01 10:21:02;;;;;;;;;;;24.10;47.70;;;;;;1490632;78;1148;-71
2021/12/01 10:23:07;;;;;;;;;;;24.10;47.60;;;;;;1481710;79;1673;-70
2021/12/01 10:25:10;;;;;;;;;;;24.00;47.50;;;;;;1490621;79;723;-70
2021/12/01 10:27:13;;;;;;;;;;;24.00;47.50;;;;;;1489040;79;1560;-67
2021/12/01 10:29:19;;;;;;;;;;;24.10;47.60;;;;;;1487417;79;780;-67
2021/12/01 10:31:31;;;;;;;;;;;24.00;47.80;;;;;;1484155;79;1951;-67
2021/12/01 10:33:33;;;;;;;;;;;24.00;47.80;;;;;;1499566;78;781;-67
2021/12/01 10:35:35;;;;;;;;;;;23.90;47.90;;;;;;1478725;79;809;-67
2021/12/01 10:37:37;;;;;;;;;;;24.00;47.90;;;;;;1480207;79;819;-67
2021/12/01 10:39:39;;;;;;;;;;;23.90;47.90;;;;;;1468891;79;1156;-68
2021/12/01 10:41:43;;;;;;;;;;;23.90;47.80;;;;;;1469979;79;728;-67
2021/12/01 10:43:46;;;;;;;;;;;23.90;47.80;;;;;;1464334;79;773;-67
2021/12/01 10:45:48;;;;;;;;;;;24.00;47.80;;;;;;1475927;79;699;-70
2021/12/01 10:47:50;;;;;;;;;;;24.00;47.80;;;;;;1465929;79;796;-69
2021/12/01 10:49:53;;;;;;;;;;;23.90;47.40;;;;;;1467391;79;1952;-68
2021/12/01 10:51:55;;;;;;;;;;;23.90;47.60;;;;;;1480800;79;773;-69
2021/12/01 10:53:57;;;;;;;;;;;23.80;47.30;;;;;;1472566;79;726;-68
2021/12/01 10:55:59;;;;;;;;;;;23.80;46.70;;;;;;1472202;79;733;-70
2021/12/01 10:58:06;;;;;;;;;;;23.70;46.60;;;;;;1474018;79;761;-67
2021/12/01 11:00:09;;;;;;;;;;;23.80;46.80;;;;;;1482355;79;1106;-67
2021/12/01 11:02:11;;;;;;;;;;;23.70;46.50;;;;;;1483445;79;1024;-68
2021/12/01 11:04:13;;;;;;;;;;;23.70;46.30;;;;;;1497842;79;839;-68
2021/12/01 11:06:19;;;;;;;;;;;23.80;46.40;;;;;;1480125;79;820;-68
2021/12/01 11:08:27;;;;;;;;;;;23.70;46.70;;;;;;1474115;78;1557;-70
2021/12/01 11:10:28;;;;;;;;;;;23.70;46.50;;;;;;1499034;79;1941;-69
2021/12/01 11:12:32;;;;;;;;;;;23.70;46.40;;;;;;1479430;79;719;-69
2021/12/01 11:14:43;;;;;;;;;;;23.70;46.50;;;;;;1479885;79;761;-70
2021/12/01 11:16:45;;;;;;;;;;;23.80;46.40;;;;;;1479949;79;773;-68
2021/12/01 11:18:48;;;;;;;;;;;23.80;46.40;;;;;;1480195;78;762;-73
2021/12/01 11:20:50;;;;;;;;;;;23.80;46.40;;;;;;1483587;78;1191;-68
2021/12/01 11:22:52;;;;;;;;;;;23.80;46.40;;;;;;1482159;79;747;-68
2021/12/01 11:25:12;;;;;;;;;;;23.80;46.40;;;;;;1479727;78;738;-68
2021/12/01 11:27:14;;;;;;;;;;;23.80;46.50;;;;;;1490549;79;677;-69
2021/12/01 11:29:16;;;;;;;;;;;23.80;46.50;;;;;;1477328;79;715;-68
2021/12/01 11:31:19;;;;;;;;;;;23.90;46.60;;;;;;1479597;79;1925;-68
2021/12/01 11:33:21;;;;;;;;;;;23.70;46.50;;;;;;1479906;79;796;-68
2021/12/01 11:35:22;;;;;;;;;;;23.80;46.60;;;;;;1482918;79;864;-68
2021/12/01 11:37:24;;;;;;;;;;;23.80;46.70;;;;;;1479689;79;740;-69
2021/12/01 11:39:30;;;;;;;;;;;23.90;46.80;;;;;;1478711;79;705;-67
2021/12/01 11:41:31;;;;;;;;;;;23.80;46.80;;;;;;1475563;79;1666;-69
2021/12/01 11:43:34;;;;;;;;;;;23.80;46.70;;;;;;1478565;79;781;-70
2021/12/01 11:45:37;;;;;;;;;;;23.80;46.80;;;;;;1479596;79;711;-69
2021/12/01 11:47:45;;;;;;;;;;;23.80;46.80;;;;;;1484810;79;1775;-69
2021/12/01 11:49:42;;;;;;;;;;;23.80;46.80;;;;;;1478008;78;1458;-68
2021/12/01 11:51:46;;;;;;;;;;;23.80;46.80;;;;;;1484604;78;1941;-68
2021/12/01 11:53:55;;;;;;;;;;;23.80;46.90;;;;;;1472478;79;782;-68
2021/12/01 11:55:59;;;;;;;;;;;23.80;46.80;;;;;;1475683;79;705;-67
2021/12/01 11:58:00;;;;;;;;;;;23.90;46.90;;;;;;1504457;79;870;-68
2021/12/01 12:00:03;;;;;;;;;;;23.80;46.70;;;;;;1483895;79;1149;-69
2021/12/01 12:02:07;;;;;;;;;;;23.80;46.70;;;;;;1490675;79;789;-68
2021/12/01 12:04:10;;;;;;;;;;;23.80;46.70;;;;;;1484740;79;1602;-68
2021/12/01 12:06:18;;;;;;;;;;;23.80;46.70;;;;;;1480105;79;736;-65
2021/12/01 12:08:38;;;;;;;;;;;23.80;46.70;;;;;;1478984;79;699;-71
2021/12/01 12:10:40;;;;;;;;;;;23.90;46.80;;;;;;1479841;79;1947;-68
2021/12/01 12:12:57;;;;;;;;;;;23.70;46.50;;;;;;1479485;78;752;-68
2021/12/01 12:14:56;;;;;;;;;;;23.70;46.50;;;;;;1476179;79;1661;-68
2021/12/01 12:17:02;;;;;;;;;;;23.80;46.40;;;;;;1476918;79;906;-67